Lester, Iowa
Current Conditions -  °F | °C
As of 7:15 PM on Saturday 22 Nov 2014 (Local Time) from KLYV Reporting Station
Haze Haze  
Wind Chill: 30°   Ceiling: Unl
Heat Index: 37°   Visibility: 5mi
Dew Point: 34°   Wind: 12mph
Humidity: 87%   Direction: 180°S
Pressure: 29.5"   Gusts: NA
Location:  43.44°N, 96.33°W
Report Text: KLYV 230115Z AUTO 18010KT 5SM BR CLR 03/01 A2950 RMK AO2
Loading
Personal Weather Stations






























Interactive Weather Map New forecast layout! Learn more

10-Day Weather Forecast

Advertisements
Track Severe Weather on mobile